Time;durP1;ratioP1;P1;durP2;ratioP2;P2;SDS_P1;SDS_P2;PMS_P1;PMS_P2;Temp;Humidity;BMP_temperature;BMP_pressure;BME280_temperature;BME280_humidity;BME280_pressure;Samples;Min_cycle;Max_cycle;Signal;HPM_P1;HPM_P2
2021/01/07 00:01:18;;;;;;;73.87;54.37;;;5.20;99.90;;;;;;5112905;28;20274;-81
2021/01/07 00:03:44;;;;;;;71.00;49.83;;;5.20;99.90;;;;;;5114751;28;20187;-81
2021/01/07 00:06:11;;;;;;;64.07;48.67;;;5.20;99.90;;;;;;5114200;28;20670;-81
2021/01/07 00:08:37;;;;;;;67.22;48.95;;;5.10;99.90;;;;;;5114010;28;20266;-81
2021/01/07 00:11:04;;;;;;;59.00;46.37;;;5.10;99.90;;;;;;5112726;28;20297;-81
2021/01/07 00:13:30;;;;;;;72.25;48.58;;;5.10;99.90;;;;;;5114586;28;20179;-81
2021/01/07 00:15:55;;;;;;;60.03;46.93;;;5.10;99.90;;;;;;5114078;27;20171;-81
2021/01/07 00:18:21;;;;;;;69.17;48.27;;;5.10;99.90;;;;;;5114471;28;20415;-81
2021/01/07 00:20:47;;;;;;;114.83;64.60;;;5.10;99.90;;;;;;5113980;28;20635;-81
2021/01/07 00:23:13;;;;;;;146.30;76.85;;;5.10;99.90;;;;;;5114341;28;20252;-81
2021/01/07 00:25:45;;;;;;;184.10;92.13;;;5.00;99.90;;;;;;5113957;28;20667;-81
2021/01/07 00:28:11;;;;;;;99.80;59.97;;;5.00;99.90;;;;;;5114293;28;20647;-81
2021/01/07 00:30:36;;;;;;;82.00;57.23;;;5.00;99.90;;;;;;5112610;28;20203;-81
2021/01/07 00:33:02;;;;;;;87.93;57.20;;;4.90;99.90;;;;;;5114256;28;20168;-81
2021/01/07 00:35:28;;;;;;;99.57;55.60;;;4.90;99.90;;;;;;5112497;28;20218;-81
2021/01/07 00:37:54;;;;;;;89.05;49.00;;;4.90;99.90;;;;;;5112560;28;20946;-81
2021/01/07 00:40:19;;;;;;;157.50;61.63;;;4.80;99.90;;;;;;5113806;28;20179;-80
2021/01/07 00:42:45;;;;;;;100.90;53.60;;;4.80;99.90;;;;;;5112633;28;20207;-81
2021/01/07 00:45:11;;;;;;;159.47;50.10;;;4.60;99.90;;;;;;5112550;28;20215;-81
2021/01/07 00:47:36;;;;;;;208.23;51.20;;;4.50;99.90;;;;;;5113964;28;20171;-81
2021/01/07 00:50:02;;;;;;;142.13;50.73;;;4.50;99.90;;;;;;5112413;28;20452;-81
2021/01/07 00:52:28;;;;;;;128.10;50.42;;;4.40;99.90;;;;;;5112471;28;20300;-81
2021/01/07 00:54:53;;;;;;;93.43;47.30;;;4.40;99.90;;;;;;5112231;28;20600;-81
2021/01/07 00:57:19;;;;;;;82.73;47.43;;;4.40;99.90;;;;;;5112450;28;20183;-81
2021/01/07 00:59:44;;;;;;;94.47;49.67;;;4.40;99.90;;;;;;5113556;28;20179;-81
2021/01/07 01:02:10;;;;;;;80.53;51.23;;;4.40;99.90;;;;;;5113736;28;20202;-81
2021/01/07 01:04:36;;;;;;;113.60;51.00;;;4.50;99.90;;;;;;5113575;28;20184;-80
2021/01/07 01:07:01;;;;;;;79.63;46.90;;;4.50;99.90;;;;;;5113655;28;20187;-81
2021/01/07 01:09:27;;;;;;;66.68;46.42;;;4.40;99.90;;;;;;5115951;28;20210;-81
2021/01/07 01:11:53;;;;;;;84.73;52.57;;;4.40;99.90;;;;;;5116253;28;20172;-81
2021/01/07 01:14:20;;;;;;;89.60;50.90;;;4.40;99.90;;;;;;5116208;28;20229;-81
2021/01/07 01:16:50;;;;;;;114.22;52.40;;;4.40;99.90;;;;;;5116147;28;20405;-81
2021/01/07 01:19:19;;;;;;;137.35;55.30;;;4.30;99.90;;;;;;5117404;28;20659;-81
2021/01/07 01:21:45;;;;;;;121.18;56.22;;;4.30;99.90;;;;;;5116078;28;20191;-81
2021/01/07 01:24:11;;;;;;;113.47;57.60;;;4.30;99.90;;;;;;5117398;28;20251;-81
2021/01/07 01:26:37;;;;;;;143.52;61.38;;;4.30;99.90;;;;;;5117172;28;20259;-81
2021/01/07 01:29:03;;;;;;;160.88;58.95;;;4.40;99.90;;;;;;5115921;28;20267;-81
2021/01/07 01:31:28;;;;;;;181.20;65.77;;;4.40;99.90;;;;;;5117001;28;20279;-81
2021/01/07 01:33:54;;;;;;;159.57;63.40;;;4.40;99.90;;;;;;5117078;28;20186;-81
2021/01/07 01:36:26;;;;;;;160.30;66.77;;;4.30;99.90;;;;;;5117017;28;20203;-81
2021/01/07 01:38:52;;;;;;;198.75;72.22;;;4.30;99.90;;;;;;5116910;28;20175;-81
2021/01/07 01:41:18;;;;;;;124.88;64.80;;;4.20;99.90;;;;;;5116906;28;20221;-81
2021/01/07 01:43:44;;;;;;;116.30;60.60;;;4.10;99.90;;;;;;5115859;28;20187;-81
2021/01/07 01:46:09;;;;;;;142.00;67.27;;;4.00;99.90;;;;;;5116861;28;20657;-81
2021/01/07 01:48:36;;;;;;;163.33;70.03;;;3.90;99.90;;;;;;5117223;27;20179;-81
2021/01/07 01:51:01;;;;;;;129.80;64.45;;;3.90;99.90;;;;;;5116670;28;20667;-81
2021/01/07 01:53:27;;;;;;;125.17;64.37;;;3.90;99.90;;;;;;5117179;28;20179;-81
2021/01/07 01:55:54;;;;;;;109.10;61.90;;;3.80;99.90;;;;;;5116457;28;20227;-81
2021/01/07 01:58:20;;;;;;;120.95;68.38;;;3.90;99.90;;;;;;5117076;28;20172;-81
2021/01/07 02:00:46;;;;;;;127.65;68.20;;;3.90;99.90;;;;;;5116553;28;20567;-81
2021/01/07 02:03:12;;;;;;;130.30;71.00;;;4.00;99.90;;;;;;5116533;28;20180;-81
2021/01/07 02:05:41;;;;;;;110.53;63.90;;;4.00;99.90;;;;;;5115225;28;20278;-81
2021/01/07 02:08:09;;;;;;;91.85;57.30;;;3.90;99.90;;;;;;5116449;28;20259;-81
2021/01/07 02:10:35;;;;;;;80.90;54.05;;;3.90;99.90;;;;;;5115037;28;20212;-81
2021/01/07 02:13:04;;;;;;;77.22;54.15;;;3.90;99.90;;;;;;5116661;28;20201;-81
2021/01/07 02:15:30;;;;;;;80.50;54.42;;;4.00;99.90;;;;;;5115049;28;20179;-81
2021/01/07 02:17:56;;;;;;;65.75;49.03;;;4.00;99.90;;;;;;5116592;28;20670;-81
2021/01/07 02:20:26;;;;;;;71.33;50.37;;;4.00;99.90;;;;;;5114933;28;20262;-81
2021/01/07 02:22:56;;;;;;;66.50;51.20;;;3.90;99.90;;;;;;5114903;28;20435;-81
2021/01/07 02:25:22;;;;;;;62.20;47.47;;;3.80;99.90;;;;;;5116153;28;20187;-81
2021/01/07 02:27:48;;;;;;;62.78;47.38;;;3.70;99.90;;;;;;5114874;28;20658;-81
2021/01/07 02:30:15;;;;;;;63.05;47.20;;;3.70;99.90;;;;;;5114636;28;20290;-81
2021/01/07 02:32:40;;;;;;;59.97;46.80;;;3.70;99.90;;;;;;5116118;28;20172;-81
2021/01/07 02:35:08;;;;;;;67.83;48.30;;;3.60;99.90;;;;;;5114629;28;20187;-81
2021/01/07 02:37:35;;;;;;;97.40;48.40;;;3.50;99.90;;;;;;5116029;28;20512;-81
2021/01/07 02:40:01;;;;;;;86.68;48.42;;;3.40;99.90;;;;;;5114578;28;20678;-81
2021/01/07 02:42:26;;;;;;;84.57;45.80;;;3.30;99.90;;;;;;5114490;28;20538;-80
2021/01/07 02:44:53;;;;;;;94.13;46.70;;;3.20;99.90;;;;;;5114463;28;20187;-81
2021/01/07 02:47:18;;;;;;;71.10;44.40;;;3.10;99.90;;;;;;5114447;28;20171;-81
2021/01/07 02:49:44;;;;;;;66.10;47.13;;;3.00;99.90;;;;;;5115609;28;20670;-80
2021/01/07 02:52:10;;;;;;;62.83;43.45;;;3.10;99.90;;;;;;5115752;28;20190;-81
2021/01/07 02:54:35;;;;;;;55.83;39.13;;;2.90;99.90;;;;;;5115340;28;20258;-81
2021/01/07 02:57:02;;;;;;;58.53;43.53;;;2.70;99.90;;;;;;5114228;28;20568;-81
2021/01/07 02:59:28;;;;;;;58.38;42.17;;;2.80;99.90;;;;;;5114171;28;20221;-81
2021/01/07 03:01:54;;;;;;;58.50;45.42;;;2.80;99.90;;;;;;5115405;28;20237;-80
2021/01/07 03:04:20;;;;;;;73.97;45.33;;;2.70;99.90;;;;;;5114036;28;20180;-80
2021/01/07 03:06:46;;;;;;;57.30;42.60;;;2.50;99.90;;;;;;5115271;28;20183;-81
2021/01/07 03:09:12;;;;;;;63.08;44.13;;;2.40;99.90;;;;;;5115256;28;20247;-81
2021/01/07 03:11:38;;;;;;;57.15;47.22;;;2.30;99.90;;;;;;5115112;28;20557;-81
2021/01/07 03:14:03;;;;;;;59.47;45.27;;;2.20;99.90;;;;;;5115296;28;20233;-80
2021/01/07 03:16:29;;;;;;;64.30;42.63;;;2.20;99.90;;;;;;5115002;28;20687;-81
2021/01/07 03:18:54;;;;;;;53.00;42.50;;;2.10;99.90;;;;;;5115064;28;20201;-81
2021/01/07 03:21:20;;;;;;;52.10;41.77;;;2.10;99.90;;;;;;5115322;28;20176;-80
2021/01/07 03:23:46;;;;;;;62.23;40.90;;;2.10;99.90;;;;;;5113861;28;20710;-81
2021/01/07 03:26:11;;;;;;;56.40;42.40;;;2.10;99.90;;;;;;5113631;28;20202;-81
2021/01/07 03:28:37;;;;;;;53.67;42.07;;;2.30;99.90;;;;;;5115292;28;20241;-81
2021/01/07 03:31:03;;;;;;;53.93;42.60;;;2.20;99.90;;;;;;5113098;28;20315;-80
2021/01/07 03:33:29;;;;;;;57.28;43.05;;;2.20;99.90;;;;;;5115184;28;20624;-81
2021/01/07 03:35:54;;;;;;;49.13;40.30;;;2.30;99.90;;;;;;5113364;28;20182;-81
2021/01/07 03:38:20;;;;;;;60.30;46.20;;;2.30;99.90;;;;;;5113490;28;20168;-81
2021/01/07 03:40:45;;;;;;;61.53;48.20;;;2.20;99.90;;;;;;5113353;28;20187;-80
2021/01/07 03:43:11;;;;;;;65.17;47.67;;;2.20;99.90;;;;;;5114939;28;20180;-81
2021/01/07 03:45:36;;;;;;;72.23;54.70;;;2.30;99.90;;;;;;5114512;28;20214;-81
2021/01/07 03:48:02;;;;;;;67.43;53.00;;;2.40;99.90;;;;;;5113385;28;20186;-80
2021/01/07 03:50:28;;;;;;;67.97;51.23;;;2.40;99.90;;;;;;5113027;28;20221;-80
2021/01/07 03:52:54;;;;;;;60.80;44.93;;;2.50;99.90;;;;;;5114753;28;20242;-81
2021/01/07 03:55:20;;;;;;;50.92;38.30;;;2.50;99.90;;;;;;5112917;28;20269;-80
2021/01/07 03:57:45;;;;;;;51.77;36.63;;;2.60;99.90;;;;;;5114582;28;20172;-80
2021/01/07 04:00:11;;;;;;;50.27;35.00;;;2.70;99.90;;;;;;5114354;28;20801;-81
2021/01/07 04:02:37;;;;;;;43.47;33.20;;;2.70;99.90;;;;;;5113116;28;20220;-81
2021/01/07 04:05:03;;;;;;;45.27;34.97;;;2.80;99.90;;;;;;5113035;28;20270;-81
2021/01/07 04:07:28;;;;;;;42.42;34.58;;;2.70;99.90;;;;;;5114436;28;20182;-80
2021/01/07 04:09:54;;;;;;;48.67;35.87;;;2.90;99.90;;;;;;5112808;28;20204;-81
2021/01/07 04:12:20;;;;;;;41.03;31.40;;;2.80;99.90;;;;;;5114294;28;20172;-80
2021/01/07 04:14:45;;;;;;;39.17;29.90;;;2.80;99.90;;;;;;5112780;28;20548;-80
2021/01/07 04:17:11;;;;;;;34.40;27.57;;;2.60;99.90;;;;;;5114135;28;20205;-81
2021/01/07 04:19:36;;;;;;;36.97;29.50;;;2.80;99.90;;;;;;5112747;28;20731;-80
2021/01/07 04:22:02;;;;;;;35.73;27.67;;;2.80;99.90;;;;;;5114108;28;20233;-81
2021/01/07 04:24:28;;;;;;;32.70;26.90;;;2.80;99.90;;;;;;5112617;28;20215;-81
2021/01/07 04:26:53;;;;;;;35.23;26.40;;;2.80;99.90;;;;;;5114043;28;20172;-80
2021/01/07 04:29:19;;;;;;;33.07;25.60;;;2.90;99.90;;;;;;5112705;28;20636;-81
2021/01/07 04:31:44;;;;;;;36.37;28.13;;;2.90;99.90;;;;;;5113775;28;20221;-81
2021/01/07 04:34:10;;;;;;;36.60;27.00;;;2.90;99.90;;;;;;5112522;28;20180;-81
2021/01/07 04:36:36;;;;;;;42.00;29.70;;;2.90;99.90;;;;;;5112477;28;20183;-81
2021/01/07 04:39:01;;;;;;;49.47;33.90;;;3.10;99.90;;;;;;5113716;28;20687;-81
2021/01/07 04:41:27;;;;;;;49.07;35.87;;;3.20;99.90;;;;;;5113838;28;20213;-81
2021/01/07 04:43:59;;;;;;;66.17;44.73;;;3.20;99.90;;;;;;5115103;28;20325;-81
2021/01/07 04:46:26;;;;;;;48.33;34.03;;;3.10;99.90;;;;;;5116667;28;20184;-81
2021/01/07 04:48:52;;;;;;;36.50;26.67;;;3.10;99.90;;;;;;5116676;28;20187;-81
2021/01/07 04:51:18;;;;;;;34.63;25.10;;;3.20;99.90;;;;;;5117885;28;20188;-80
2021/01/07 04:53:44;;;;;;;28.45;22.20;;;3.00;99.90;;;;;;5118305;28;20532;-81
2021/01/07 04:56:13;;;;;;;31.33;23.67;;;2.90;99.90;;;;;;5116426;28;20706;-81
2021/01/07 04:58:39;;;;;;;28.00;22.35;;;2.70;99.90;;;;;;5116705;28;20532;-81
2021/01/07 05:01:04;;;;;;;28.50;22.20;;;2.80;99.90;;;;;;5116473;28;20186;-81
2021/01/07 05:03:32;;;;;;;27.50;23.70;;;2.90;99.90;;;;;;5116620;28;20176;-81
2021/01/07 05:05:58;;;;;;;31.90;23.98;;;2.90;99.90;;;;;;5116340;28;20416;-81
2021/01/07 05:08:24;;;;;;;28.77;22.63;;;2.90;99.90;;;;;;5116455;28;20180;-81
2021/01/07 05:10:50;;;;;;;27.83;20.17;;;2.90;99.90;;;;;;5116237;28;20294;-80
2021/01/07 05:13:17;;;;;;;24.15;19.05;;;3.40;99.90;;;;;;5116446;28;20718;-80
2021/01/07 05:15:43;;;;;;;25.92;19.92;;;4.10;99.00;;;;;;5116238;28;20176;-81
2021/01/07 05:18:09;;;;;;;25.50;19.70;;;4.40;97.90;;;;;;5116299;28;20184;-81
2021/01/07 05:20:35;;;;;;;29.83;20.52;;;4.90;97.30;;;;;;5115883;28;20561;-81
2021/01/07 05:23:01;;;;;;;24.57;19.23;;;5.10;96.20;;;;;;5117670;28;20175;-81
2021/01/07 05:25:29;;;;;;;24.17;18.45;;;5.10;95.50;;;;;;5117396;28;20271;-81
2021/01/07 05:28:02;;;;;;;22.25;16.10;;;5.00;96.20;;;;;;5117650;28;20270;-81
2021/01/07 05:30:30;;;;;;;19.10;15.80;;;5.40;96.60;;;;;;5117074;28;20192;-81
2021/01/07 05:33:04;;;;;;;18.63;15.10;;;5.60;94.90;;;;;;5117426;28;20168;-81
2021/01/07 05:35:30;;;;;;;20.52;14.45;;;5.70;96.10;;;;;;5116985;28;20654;-81
2021/01/07 05:38:00;;;;;;;18.50;15.15;;;5.80;94.70;;;;;;5117346;28;20164;-81
2021/01/07 05:40:27;;;;;;;18.38;14.43;;;5.70;95.30;;;;;;5115732;28;20249;-81
2021/01/07 05:42:58;;;;;;;17.80;13.80;;;5.50;94.90;;;;;;5116867;28;20195;-81
2021/01/07 05:45:33;;;;;;;16.65;14.82;;;5.70;95.20;;;;;;5117044;28;20175;-81
2021/01/07 05:47:59;;;;;;;19.27;14.82;;;4.80;96.90;;;;;;5117173;28;20198;-81
2021/01/07 05:50:28;;;;;;;22.23;15.60;;;4.20;98.30;;;;;;5116766;28;20282;-81
2021/01/07 05:52:55;;;;;;;21.02;17.65;;;4.00;99.20;;;;;;5117020;28;20172;-81
2021/01/07 05:55:20;;;;;;;24.73;19.38;;;3.90;99.50;;;;;;5114952;28;20254;-81
2021/01/07 05:57:46;;;;;;;18.80;16.30;;;3.70;99.90;;;;;;5115273;28;20179;-80
2021/01/07 06:00:17;;;;;;;24.52;19.08;;;3.60;99.90;;;;;;5115983;28;20207;-80
2021/01/07 06:02:44;;;;;;;21.60;17.38;;;3.60;99.90;;;;;;5115046;28;20191;-80
2021/01/07 06:05:11;;;;;;;30.88;21.90;;;3.50;99.90;;;;;;5116367;28;20251;-80
2021/01/07 06:07:38;;;;;;;25.27;17.65;;;3.50;99.90;;;;;;5114923;28;20186;-80
2021/01/07 06:10:09;;;;;;;26.35;19.55;;;3.50;99.90;;;;;;5114448;28;20204;-80
2021/01/07 06:12:35;;;;;;;21.30;19.00;;;3.50;99.90;;;;;;5115944;28;20168;-80
2021/01/07 06:15:04;;;;;;;23.17;19.90;;;3.40;99.90;;;;;;5115982;28;20183;-80
2021/01/07 06:17:30;;;;;;;23.48;18.33;;;3.40;99.90;;;;;;5114068;28;20426;-80
2021/01/07 06:19:56;;;;;;;20.45;17.15;;;3.10;99.90;;;;;;5113737;28;20285;-80
2021/01/07 06:22:23;;;;;;;28.80;21.50;;;2.80;99.90;;;;;;5115670;28;20205;-80
2021/01/07 06:24:55;;;;;;;65.38;53.70;;;2.60;99.90;;;;;;5115805;28;20391;-80
2021/01/07 06:27:32;;;;;;;38.58;32.35;;;2.60;99.90;;;;;;5115891;28;20735;-80
2021/01/07 06:30:21;;;;;;;28.33;23.23;;;2.60;99.90;;;;;;5114512;28;20195;-80
2021/01/07 06:32:59;;;;;;;24.80;19.15;;;2.60;99.90;;;;;;5116018;28;20237;-80
2021/01/07 06:35:39;;;;;;;29.17;21.80;;;2.60;99.90;;;;;;5115758;28;20572;-80
2021/01/07 06:38:06;;;;;;;20.83;17.08;;;2.50;99.90;;;;;;5115194;28;20179;-80
2021/01/07 06:40:38;;;;;;;21.25;16.48;;;2.60;99.90;;;;;;5116248;27;20195;-80
2021/01/07 06:43:11;;;;;;;17.42;14.77;;;2.60;99.90;;;;;;5114404;28;20627;-80
2021/01/07 06:45:37;;;;;;;17.58;14.27;;;2.70;99.90;;;;;;5114493;28;20679;-80
2021/01/07 06:48:03;;;;;;;21.23;17.40;;;2.70;99.90;;;;;;5114120;28;20275;-80
2021/01/07 06:50:35;;;;;;;18.60;14.57;;;2.80;99.90;;;;;;5115853;28;20210;-80
2021/01/07 06:53:04;;;;;;;26.75;22.30;;;2.80;99.90;;;;;;5111040;28;20425;-80
2021/01/07 06:55:29;;;;;;;23.33;17.30;;;2.80;99.90;;;;;;5113877;28;20679;-80
2021/01/07 06:57:57;;;;;;;20.10;17.90;;;2.80;99.90;;;;;;5115355;28;20179;-80
2021/01/07 07:00:26;;;;;;;20.05;16.85;;;2.90;99.90;;;;;;5115414;28;20611;-80
2021/01/07 07:03:10;;;;;;;22.05;19.70;;;3.00;99.90;;;;;;5115188;28;20188;-81
2021/01/07 07:05:39;;;;;;;23.88;18.63;;;3.00;99.90;;;;;;5112735;28;20220;-81
2021/01/07 07:08:13;;;;;;;31.15;22.85;;;3.00;99.90;;;;;;5113183;27;20648;-82
2021/01/07 07:10:39;;;;;;;24.63;21.95;;;2.90;99.90;;;;;;5114948;28;20199;-81
2021/01/07 07:13:15;;;;;;;22.37;18.47;;;3.00;99.90;;;;;;5104123;28;20289;-79
2021/01/07 07:15:41;;;;;;;24.63;17.90;;;3.10;99.90;;;;;;5115183;28;20183;-79
2021/01/07 07:18:07;;;;;;;29.85;19.60;;;3.10;99.90;;;;;;5097501;28;20645;-79
2021/01/07 07:20:39;;;;;;;22.50;18.43;;;3.30;99.90;;;;;;5097978;28;20199;-79
2021/01/07 07:23:21;;;;;;;14.88;13.38;;;3.30;99.90;;;;;;5107154;28;20963;-79
2021/01/07 07:25:53;;;;;;;16.25;14.55;;;3.50;99.90;;;;;;5114951;28;20190;-79
2021/01/07 07:28:26;;;;;;;16.65;13.90;;;3.60;99.90;;;;;;5109134;28;20195;-79
2021/01/07 07:30:52;;;;;;;16.88;12.98;;;3.50;99.90;;;;;;5109494;28;20208;-80
2021/01/07 07:33:35;;;;;;;16.90;14.70;;;3.60;99.90;;;;;;5101252;28;20633;-80
2021/01/07 07:36:02;;;;;;;20.95;17.90;;;3.70;99.90;;;;;;5112899;28;20183;-80
2021/01/07 07:38:39;;;;;;;20.80;18.50;;;3.80;99.90;;;;;;5106880;28;20667;-81
2021/01/07 07:41:10;;;;;;;23.88;20.45;;;4.00;99.90;;;;;;5105762;28;20203;-79
2021/01/07 07:43:37;;;;;;;17.00;14.27;;;4.00;99.90;;;;;;5107773;28;20188;-79
2021/01/07 07:46:05;;;;;;;19.60;16.60;;;4.20;99.90;;;;;;5113244;28;20186;-79
2021/01/07 07:48:33;;;;;;;21.80;17.17;;;4.10;99.90;;;;;;5101574;28;20270;-79
2021/01/07 07:51:11;;;;;;;19.27;15.80;;;4.40;99.90;;;;;;5113184;28;20655;-79
2021/01/07 07:53:38;;;;;;;18.55;16.42;;;4.50;99.80;;;;;;5103700;28;20191;-79
2021/01/07 07:56:05;;;;;;;18.23;16.35;;;4.70;99.90;;;;;;5112900;28;20457;-79
2021/01/07 07:58:31;;;;;;;15.05;10.95;;;4.90;99.90;;;;;;5102142;28;20208;-79
2021/01/07 08:00:58;;;;;;;19.40;14.50;;;5.00;99.20;;;;;;5110390;27;20758;-79
2021/01/07 08:03:26;;;;;;;13.50;11.25;;;5.30;98.40;;;;;;5101618;28;20274;-79
2021/01/07 08:05:52;;;;;;;14.52;11.70;;;5.50;97.40;;;;;;5108660;28;20183;-81
2021/01/07 08:08:26;;;;;;;15.23;11.95;;;5.50;97.40;;;;;;5110627;28;20191;-81
2021/01/07 08:10:54;;;;;;;14.27;12.07;;;5.20;97.70;;;;;;5103970;28;20716;-81
2021/01/07 08:13:21;;;;;;;12.93;11.45;;;5.20;97.60;;;;;;5105372;28;20553;-81
2021/01/07 08:15:48;;;;;;;12.90;11.50;;;5.30;97.70;;;;;;5102415;28;20640;-81
2021/01/07 08:18:21;;;;;;;13.45;10.50;;;5.50;97.70;;;;;;5102183;28;20206;-82
2021/01/07 08:20:48;;;;;;;11.60;10.40;;;5.50;97.20;;;;;;5113549;28;20221;-81
2021/01/07 08:23:15;;;;;;;12.75;10.60;;;5.60;97.10;;;;;;5112141;28;20200;-81
2021/01/07 08:25:45;;;;;;;14.25;10.77;;;5.70;96.40;;;;;;5113985;28;20184;-81
2021/01/07 08:28:24;;;;;;;17.38;13.35;;;5.70;95.90;;;;;;5096805;28;20679;-80
2021/01/07 08:30:52;;;;;;;23.13;16.08;;;5.70;95.90;;;;;;5096066;28;20215;-80
2021/01/07 08:33:22;;;;;;;39.08;22.33;;;5.60;96.90;;;;;;5103750;28;20234;-80
2021/01/07 08:35:48;;;;;;;28.42;18.42;;;5.70;96.00;;;;;;5107248;28;20172;-79
2021/01/07 08:38:30;;;;;;;20.35;15.98;;;5.60;96.30;;;;;;5101548;28;20269;-80
2021/01/07 08:41:21;;;;;;;19.27;14.88;;;5.50;96.10;;;;;;5108476;28;20270;-80
2021/01/07 08:43:50;;;;;;;15.98;13.05;;;5.50;96.10;;;;;;5102232;28;20564;-80
2021/01/07 08:46:26;;;;;;;18.38;13.00;;;5.40;95.80;;;;;;5098525;28;20512;-79
2021/01/07 08:49:16;;;;;;;19.73;15.43;;;5.40;96.20;;;;;;5128990;28;20201;-80
2021/01/07 08:51:42;;;;;;;15.00;13.40;;;5.40;96.50;;;;;;5109470;28;20204;-80
2021/01/07 08:54:23;;;;;;;16.38;13.52;;;5.60;96.50;;;;;;5093353;28;20172;-80
2021/01/07 08:56:50;;;;;;;17.30;13.20;;;6.30;94.50;;;;;;5107457;28;20724;-79
2021/01/07 08:59:20;;;;;;;14.95;13.30;;;6.40;94.70;;;;;;5095383;28;20180;-80
2021/01/07 09:01:50;;;;;;;21.55;14.68;;;6.60;94.20;;;;;;5096157;28;20179;-80
2021/01/07 09:04:35;;;;;;;21.50;17.10;;;6.80;93.80;;;;;;5103002;28;20188;-79
2021/01/07 09:07:06;;;;;;;21.67;17.63;;;6.80;92.90;;;;;;5094992;28;20188;-80
2021/01/07 09:09:42;;;;;;;24.42;18.00;;;7.00;92.40;;;;;;5101927;28;20282;-80
2021/01/07 09:12:19;;;;;;;16.35;13.35;;;7.20;92.40;;;;;;5098035;28;20188;-80
2021/01/07 09:15:11;;;;;;;16.58;13.32;;;7.50;91.90;;;;;;5097446;28;20188;-79
2021/01/07 09:17:55;;;;;;;15.63;14.02;;;7.80;90.40;;;;;;5094305;28;20617;-79
2021/01/07 09:20:22;;;;;;;16.25;13.98;;;8.00;89.60;;;;;;5091926;28;20184;-79
2021/01/07 09:22:49;;;;;;;16.55;14.70;;;7.90;88.70;;;;;;5093397;28;20214;-79
2021/01/07 09:25:17;;;;;;;16.38;14.43;;;7.50;90.10;;;;;;5093172;28;20189;-79
2021/01/07 09:27:49;;;;;;;17.23;14.80;;;7.40;90.90;;;;;;5092395;28;20181;-79
2021/01/07 09:30:15;;;;;;;18.70;16.13;;;7.80;89.50;;;;;;5098353;28;21679;-80
2021/01/07 09:32:43;;;;;;;16.88;13.43;;;7.90;90.20;;;;;;5101384;28;20209;-80
2021/01/07 09:35:10;;;;;;;14.85;13.27;;;7.90;90.90;;;;;;5106991;27;20263;-80
2021/01/07 09:37:35;;;;;;;14.60;13.05;;;7.60;88.90;;;;;;5117446;27;20187;-80
2021/01/07 09:40:04;;;;;;;14.60;12.43;;;7.50;90.70;;;;;;5106550;28;20192;-79
2021/01/07 09:42:31;;;;;;;15.80;14.18;;;7.40;89.70;;;;;;5108711;28;20228;-80
2021/01/07 09:44:56;;;;;;;14.13;12.68;;;7.40;90.60;;;;;;5110487;28;20548;-80
2021/01/07 09:47:23;;;;;;;14.20;12.73;;;7.50;90.10;;;;;;5104998;28;20181;-80
2021/01/07 09:49:49;;;;;;;13.80;12.40;;;7.60;91.10;;;;;;5115196;28;20191;-79
2021/01/07 09:52:16;;;;;;;32.42;24.77;;;7.90;88.20;;;;;;5099684;28;20541;-80
2021/01/07 09:54:42;;;;;;;16.52;13.93;;;8.10;87.10;;;;;;5116623;28;20179;-80
2021/01/07 09:57:07;;;;;;;14.67;13.10;;;8.30;88.00;;;;;;5097113;28;20628;-79
2021/01/07 09:59:34;;;;;;;12.20;10.70;;;8.50;86.70;;;;;;5098260;28;20471;-79
2021/01/07 10:02:07;;;;;;;13.30;11.90;;;8.10;86.20;;;;;;5106987;28;20644;-79
2021/01/07 10:04:34;;;;;;;13.65;12.25;;;8.30;87.10;;;;;;5112982;27;20204;-80
2021/01/07 10:07:00;;;;;;;13.02;11.73;;;8.80;81.50;;;;;;5106629;28;20184;-79
2021/01/07 10:09:26;;;;;;;12.98;11.13;;;8.30;81.50;;;;;;5106473;28;20656;-79
2021/01/07 10:11:56;;;;;;;14.47;11.30;;;8.20;80.40;;;;;;5100871;28;20215;-79
2021/01/07 10:14:23;;;;;;;9.13;8.25;;;8.10;81.90;;;;;;5105594;28;20662;-79
2021/01/07 10:16:53;;;;;;;10.43;9.32;;;8.20;80.30;;;;;;5099927;27;20231;-79
2021/01/07 10:19:20;;;;;;;11.15;8.48;;;8.20;80.70;;;;;;5095850;28;20212;-78
2021/01/07 10:22:05;;;;;;;13.73;11.77;;;9.40;83.70;;;;;;5108307;28;20191;-79
2021/01/07 10:24:32;;;;;;;14.05;12.65;;;10.40;78.50;;;;;;5094470;28;20547;-78
2021/01/07 10:27:03;;;;;;;9.65;8.75;;;9.60;74.60;;;;;;5107815;28;20245;-79
2021/01/07 10:29:34;;;;;;;11.55;10.35;;;9.20;75.70;;;;;;5098782;28;20191;-79
2021/01/07 10:32:07;;;;;;;10.48;9.48;;;9.30;77.90;;;;;;5096115;28;20211;-79
2021/01/07 10:34:35;;;;;;;9.80;8.23;;;9.30;75.70;;;;;;5106110;28;20183;-78
2021/01/07 10:37:03;;;;;;;14.40;11.63;;;10.10;74.20;;;;;;5099720;28;20261;-79
2021/01/07 10:39:34;;;;;;;48.63;30.00;;;10.20;73.10;;;;;;5109144;28;20194;-79
2021/01/07 10:42:01;;;;;;;16.80;13.35;;;10.10;71.30;;;;;;5103152;28;20538;-79
2021/01/07 10:44:32;;;;;;;8.65;7.47;;;10.10;71.90;;;;;;5106568;28;20652;-79
2021/01/07 10:47:00;;;;;;;7.90;7.20;;;10.10;71.30;;;;;;5108668;28;20263;-79
2021/01/07 10:49:30;;;;;;;6.78;6.18;;;10.50;68.70;;;;;;5111908;28;20311;-79
2021/01/07 10:52:07;;;;;;;7.43;6.72;;;10.20;68.70;;;;;;5097375;28;20205;-79
2021/01/07 10:54:54;;;;;;;6.75;6.10;;;10.00;70.10;;;;;;5110903;28;20207;-79
2021/01/07 10:57:38;;;;;;;6.40;5.90;;;9.70;70.00;;;;;;5100074;28;20267;-79
2021/01/07 11:00:13;;;;;;;7.45;6.75;;;9.70;69.80;;;;;;5107375;28;20278;-79
2021/01/07 11:03:06;;;;;;;8.02;7.25;;;9.60;69.90;;;;;;5111445;28;20674;-79
2021/01/07 11:05:41;;;;;;;7.90;7.20;;;9.50;71.90;;;;;;5096449;28;20263;-79
2021/01/07 11:08:26;;;;;;;8.85;7.55;;;9.20;73.10;;;;;;5106986;28;20579;-79
2021/01/07 11:10:53;;;;;;;8.23;7.50;;;8.80;73.20;;;;;;5115262;28;20294;-79
2021/01/07 11:13:40;;;;;;;9.13;8.13;;;8.80;76.60;;;;;;5097204;28;20180;-79
2021/01/07 11:16:10;;;;;;;10.15;9.20;;;8.80;75.60;;;;;;5095094;28;20512;-79
2021/01/07 11:18:47;;;;;;;8.52;7.63;;;8.80;75.20;;;;;;5093239;28;20180;-80
2021/01/07 11:21:16;;;;;;;7.90;7.07;;;8.40;74.70;;;;;;5095115;28;20183;-80
2021/01/07 11:23:42;;;;;;;8.75;7.75;;;8.50;76.50;;;;;;5113316;28;20707;-79
2021/01/07 11:26:09;;;;;;;8.13;7.43;;;8.40;75.00;;;;;;5115253;28;20262;-80
2021/01/07 11:28:36;;;;;;;7.28;6.68;;;8.40;74.80;;;;;;5094172;28;20554;-79
2021/01/07 11:31:02;;;;;;;7.40;6.70;;;8.40;76.50;;;;;;5093288;28;20219;-80
2021/01/07 11:33:33;;;;;;;9.82;8.65;;;8.20;75.90;;;;;;5097651;28;20545;-80
2021/01/07 11:36:04;;;;;;;8.07;7.25;;;8.30;75.80;;;;;;5094981;28;20247;-79
2021/01/07 11:38:38;;;;;;;7.32;6.60;;;8.30;75.70;;;;;;5096849;28;20233;-79
2021/01/07 11:41:25;;;;;;;9.63;8.70;;;8.20;75.80;;;;;;5113741;28;20180;-80
2021/01/07 11:44:03;;;;;;;8.65;7.75;;;8.30;77.40;;;;;;5113074;27;20188;-79
2021/01/07 11:46:33;;;;;;;8.40;7.50;;;8.50;77.70;;;;;;5108514;28;20278;-80
2021/01/07 11:49:02;;;;;;;9.23;8.18;;;8.50;76.20;;;;;;5100119;28;20183;-80
2021/01/07 12:45:58;;;;;;;8.63;7.78;;;9.40;72.40;;;;;;5096836;27;20650;-81
2021/01/07 12:48:25;;;;;;;9.02;8.23;;;9.20;69.10;;;;;;5097641;28;20195;-81
2021/01/07 12:50:55;;;;;;;8.98;8.07;;;9.30;70.20;;;;;;5107972;28;20204;-81
2021/01/07 12:53:22;;;;;;;10.20;9.10;;;9.20;69.60;;;;;;5109620;28;20180;-81
2021/01/07 12:55:49;;;;;;;11.38;8.40;;;9.00;68.40;;;;;;5115882;28;20312;-80
2021/01/07 12:58:23;;;;;;;8.90;8.00;;;9.10;69.00;;;;;;5090636;28;20203;-81
2021/01/07 13:01:08;;;;;;;9.75;8.85;;;9.10;71.50;;;;;;5111198;28;20220;-79
2021/01/07 13:03:54;;;;;;;9.80;8.80;;;9.10;69.60;;;;;;5114029;27;20199;-81
2021/01/07 13:06:36;;;;;;;8.73;7.82;;;9.20;69.50;;;;;;5113337;27;20183;-80
2021/01/07 13:09:05;;;;;;;10.43;9.30;;;9.00;69.90;;;;;;5110601;27;20695;-80
2021/01/07 13:11:34;;;;;;;11.40;10.30;;;9.10;71.00;;;;;;5114972;27;20211;-80
2021/01/07 13:14:01;;;;;;;9.20;8.30;;;9.10;70.50;;;;;;5091446;28;20295;-81
2021/01/07 13:16:27;;;;;;;15.10;13.50;;;9.10;70.80;;;;;;5092931;28;20184;-80
2021/01/07 13:18:53;;;;;;;9.30;8.40;;;8.90;71.50;;;;;;5114069;27;20186;-80
2021/01/07 13:21:19;;;;;;;8.83;7.93;;;8.90;69.20;;;;;;5115100;27;20191;-80
2021/01/07 13:23:45;;;;;;;9.03;8.13;;;8.70;70.30;;;;;;5092674;28;20246;-80
2021/01/07 13:26:13;;;;;;;8.20;7.40;;;8.70;71.30;;;;;;5117354;28;20188;-80
2021/01/07 13:28:42;;;;;;;9.50;8.57;;;8.60;69.70;;;;;;5098362;28;20784;-81
2021/01/07 13:31:09;;;;;;;11.80;10.40;;;8.60;69.20;;;;;;5121451;27;20212;-80
2021/01/07 13:33:35;;;;;;;14.93;12.93;;;8.70;69.10;;;;;;5095853;27;20198;-80
2021/01/07 13:36:02;;;;;;;11.23;9.90;;;8.80;69.10;;;;;;5117859;27;20192;-80
2021/01/07 13:38:30;;;;;;;10.30;9.25;;;8.60;69.20;;;;;;5116691;28;20175;-80
2021/01/07 13:41:04;;;;;;;9.50;8.60;;;8.60;69.00;;;;;;5095492;28;20212;-80